sensor_id;sensor_type;location;lat;lon;timestamp;P1;durP1;ratioP1;P2;durP2;ratioP2
2031;SDS011;27625;50.422;7.944;2024-02-15T00:00:29;8.07;;;4.43;;
2031;SDS011;27625;50.422;7.944;2024-02-15T00:02:56;7.73;;;4.90;;
2031;SDS011;27625;50.422;7.944;2024-02-15T00:05:25;6.43;;;4.60;;
2031;SDS011;27625;50.422;7.944;2024-02-15T00:07:52;6.43;;;4.40;;
2031;SDS011;27625;50.422;7.944;2024-02-15T00:10:21;7.03;;;4.60;;
2031;SDS011;27625;50.422;7.944;2024-02-15T00:12:51;10.50;;;5.07;;
2031;SDS011;27625;50.422;7.944;2024-02-15T00:15:17;11.47;;;5.00;;
2031;SDS011;27625;50.422;7.944;2024-02-15T00:17:45;7.87;;;4.93;;
2031;SDS011;27625;50.422;7.944;2024-02-15T00:20:12;7.70;;;5.03;;
2031;SDS011;27625;50.422;7.944;2024-02-15T00:22:40;6.33;;;4.73;;
2031;SDS011;27625;50.422;7.944;2024-02-15T00:25:08;6.93;;;4.47;;
2031;SDS011;27625;50.422;7.944;2024-02-15T00:27:37;6.40;;;4.30;;
2031;SDS011;27625;50.422;7.944;2024-02-15T00:30:04;8.43;;;4.67;;
2031;SDS011;27625;50.422;7.944;2024-02-15T00:32:36;6.67;;;4.20;;
2031;SDS011;27625;50.422;7.944;2024-02-15T00:35:04;5.40;;;3.90;;
2031;SDS011;27625;50.422;7.944;2024-02-15T00:37:40;7.33;;;4.13;;
2031;SDS011;27625;50.422;7.944;2024-02-15T00:40:09;6.57;;;4.37;;
2031;SDS011;27625;50.422;7.944;2024-02-15T00:42:38;7.73;;;4.77;;
2031;SDS011;27625;50.422;7.944;2024-02-15T00:45:05;12.20;;;4.37;;
2031;SDS011;27625;50.422;7.944;2024-02-15T00:47:36;8.17;;;4.80;;
2031;SDS011;27625;50.422;7.944;2024-02-15T00:50:04;8.10;;;4.57;;
2031;SDS011;27625;50.422;7.944;2024-02-15T00:52:33;7.23;;;4.30;;
2031;SDS011;27625;50.422;7.944;2024-02-15T00:55:00;6.73;;;4.67;;
2031;SDS011;27625;50.422;7.944;2024-02-15T00:57:29;7.33;;;4.47;;
2031;SDS011;27625;50.422;7.944;2024-02-15T00:59:57;9.47;;;4.73;;
2031;SDS011;27625;50.422;7.944;2024-02-15T01:02:24;8.27;;;4.60;;
2031;SDS011;27625;50.422;7.944;2024-02-15T01:04:55;7.87;;;4.70;;
2031;SDS011;27625;50.422;7.944;2024-02-15T01:07:28;9.73;;;4.60;;
2031;SDS011;27625;50.422;7.944;2024-02-15T01:09:54;6.97;;;5.10;;
2031;SDS011;27625;50.422;7.944;2024-02-15T01:12:23;11.10;;;4.80;;
2031;SDS011;27625;50.422;7.944;2024-02-15T01:14:50;7.80;;;4.67;;
2031;SDS011;27625;50.422;7.944;2024-02-15T01:17:20;7.57;;;5.40;;
2031;SDS011;27625;50.422;7.944;2024-02-15T01:19:47;6.90;;;4.73;;
2031;SDS011;27625;50.422;7.944;2024-02-15T01:22:13;7.13;;;4.57;;
2031;SDS011;27625;50.422;7.944;2024-02-15T01:24:41;7.70;;;4.83;;
2031;SDS011;27625;50.422;7.944;2024-02-15T01:27:08;9.63;;;4.60;;
2031;SDS011;27625;50.422;7.944;2024-02-15T01:29:35;7.50;;;4.50;;
2031;SDS011;27625;50.422;7.944;2024-02-15T01:32:02;8.47;;;4.77;;
2031;SDS011;27625;50.422;7.944;2024-02-15T01:34:32;9.10;;;5.50;;
2031;SDS011;27625;50.422;7.944;2024-02-15T01:37:05;7.17;;;4.90;;
2031;SDS011;27625;50.422;7.944;2024-02-15T01:39:31;5.60;;;4.50;;
2031;SDS011;27625;50.422;7.944;2024-02-15T01:41:58;6.23;;;4.67;;
2031;SDS011;27625;50.422;7.944;2024-02-15T01:44:28;6.20;;;4.40;;
2031;SDS011;27625;50.422;7.944;2024-02-15T01:46:57;9.23;;;4.80;;
2031;SDS011;27625;50.422;7.944;2024-02-15T01:49:24;6.33;;;4.27;;
2031;SDS011;27625;50.422;7.944;2024-02-15T01:51:53;7.70;;;4.63;;
2031;SDS011;27625;50.422;7.944;2024-02-15T01:54:20;6.23;;;4.60;;
2031;SDS011;27625;50.422;7.944;2024-02-15T01:56:47;6.17;;;4.23;;
2031;SDS011;27625;50.422;7.944;2024-02-15T01:59:14;9.30;;;4.40;;
2031;SDS011;27625;50.422;7.944;2024-02-15T02:01:42;7.43;;;4.40;;
2031;SDS011;27625;50.422;7.944;2024-02-15T02:04:09;4.77;;;4.10;;
2031;SDS011;27625;50.422;7.944;2024-02-15T02:06:36;6.30;;;3.90;;
2031;SDS011;27625;50.422;7.944;2024-02-15T02:09:04;8.50;;;4.10;;
2031;SDS011;27625;50.422;7.944;2024-02-15T02:11:36;6.90;;;4.50;;
2031;SDS011;27625;50.422;7.944;2024-02-15T02:14:03;6.97;;;4.37;;
2031;SDS011;27625;50.422;7.944;2024-02-15T02:16:30;5.83;;;3.60;;
2031;SDS011;27625;50.422;7.944;2024-02-15T02:18:58;6.50;;;4.37;;
2031;SDS011;27625;50.422;7.944;2024-02-15T02:21:27;4.80;;;3.83;;
2031;SDS011;27625;50.422;7.944;2024-02-15T02:23:57;5.70;;;4.00;;
2031;SDS011;27625;50.422;7.944;2024-02-15T02:26:29;10.67;;;4.30;;
2031;SDS011;27625;50.422;7.944;2024-02-15T02:28:56;8.77;;;5.17;;
2031;SDS011;27625;50.422;7.944;2024-02-15T02:31:24;8.13;;;4.67;;
2031;SDS011;27625;50.422;7.944;2024-02-15T02:33:51;7.03;;;4.07;;
2031;SDS011;27625;50.422;7.944;2024-02-15T02:36:21;6.17;;;4.33;;
2031;SDS011;27625;50.422;7.944;2024-02-15T02:38:51;5.00;;;3.70;;
2031;SDS011;27625;50.422;7.944;2024-02-15T02:41:19;5.80;;;4.03;;
2031;SDS011;27625;50.422;7.944;2024-02-15T02:43:47;9.93;;;3.70;;
2031;SDS011;27625;50.422;7.944;2024-02-15T02:46:14;5.40;;;3.60;;
2031;SDS011;27625;50.422;7.944;2024-02-15T02:48:41;6.43;;;3.87;;
2031;SDS011;27625;50.422;7.944;2024-02-15T02:51:08;6.83;;;3.83;;
2031;SDS011;27625;50.422;7.944;2024-02-15T02:53:34;4.90;;;3.67;;
2031;SDS011;27625;50.422;7.944;2024-02-15T02:56:02;6.20;;;4.10;;
2031;SDS011;27625;50.422;7.944;2024-02-15T02:58:29;7.60;;;3.70;;
2031;SDS011;27625;50.422;7.944;2024-02-15T03:00:57;4.53;;;3.00;;
2031;SDS011;27625;50.422;7.944;2024-02-15T03:03:25;5.47;;;3.30;;
2031;SDS011;27625;50.422;7.944;2024-02-15T03:05:52;5.70;;;3.20;;
2031;SDS011;27625;50.422;7.944;2024-02-15T03:08:19;5.67;;;3.90;;
2031;SDS011;27625;50.422;7.944;2024-02-15T03:10:47;5.80;;;3.87;;
2031;SDS011;27625;50.422;7.944;2024-02-15T03:13:15;4.63;;;3.50;;
2031;SDS011;27625;50.422;7.944;2024-02-15T03:15:44;6.20;;;3.93;;
2031;SDS011;27625;50.422;7.944;2024-02-15T03:18:15;5.90;;;3.90;;
2031;SDS011;27625;50.422;7.944;2024-02-15T03:20:42;6.93;;;3.80;;
2031;SDS011;27625;50.422;7.944;2024-02-15T03:23:09;5.80;;;3.20;;
2031;SDS011;27625;50.422;7.944;2024-02-15T03:25:36;6.67;;;3.70;;
2031;SDS011;27625;50.422;7.944;2024-02-15T03:28:03;6.33;;;4.13;;
2031;SDS011;27625;50.422;7.944;2024-02-15T03:30:33;8.10;;;3.53;;
2031;SDS011;27625;50.422;7.944;2024-02-15T03:33:00;5.37;;;3.20;;
2031;SDS011;27625;50.422;7.944;2024-02-15T03:38:00;5.83;;;3.50;;
2031;SDS011;27625;50.422;7.944;2024-02-15T03:40:27;8.63;;;4.03;;
2031;SDS011;27625;50.422;7.944;2024-02-15T03:42:55;5.43;;;3.63;;
2031;SDS011;27625;50.422;7.944;2024-02-15T03:45:22;6.70;;;3.43;;
2031;SDS011;27625;50.422;7.944;2024-02-15T03:47:50;8.60;;;3.87;;
2031;SDS011;27625;50.422;7.944;2024-02-15T03:50:18;6.83;;;4.60;;
2031;SDS011;27625;50.422;7.944;2024-02-15T03:52:50;7.83;;;3.80;;
2031;SDS011;27625;50.422;7.944;2024-02-15T03:55:17;7.53;;;4.00;;
2031;SDS011;27625;50.422;7.944;2024-02-15T04:00:16;6.20;;;3.80;;
2031;SDS011;27625;50.422;7.944;2024-02-15T04:02:53;5.33;;;4.00;;
2031;SDS011;27625;50.422;7.944;2024-02-15T04:05:22;8.13;;;4.20;;
2031;SDS011;27625;50.422;7.944;2024-02-15T04:07:52;5.30;;;3.60;;
2031;SDS011;27625;50.422;7.944;2024-02-15T04:10:19;9.03;;;4.17;;
2031;SDS011;27625;50.422;7.944;2024-02-15T04:15:18;7.47;;;4.73;;
2031;SDS011;27625;50.422;7.944;2024-02-15T04:17:46;6.13;;;3.97;;
2031;SDS011;27625;50.422;7.944;2024-02-15T04:20:12;9.40;;;4.23;;
2031;SDS011;27625;50.422;7.944;2024-02-15T04:22:41;6.87;;;4.07;;
2031;SDS011;27625;50.422;7.944;2024-02-15T04:25:11;5.30;;;3.80;;
2031;SDS011;27625;50.422;7.944;2024-02-15T04:27:44;8.80;;;4.10;;
2031;SDS011;27625;50.422;7.944;2024-02-15T04:30:12;7.77;;;4.37;;
2031;SDS011;27625;50.422;7.944;2024-02-15T04:32:40;6.33;;;3.80;;
2031;SDS011;27625;50.422;7.944;2024-02-15T04:35:07;7.33;;;3.50;;
2031;SDS011;27625;50.422;7.944;2024-02-15T04:37:35;6.90;;;3.97;;
2031;SDS011;27625;50.422;7.944;2024-02-15T04:40:03;5.30;;;3.60;;
2031;SDS011;27625;50.422;7.944;2024-02-15T04:42:43;11.20;;;4.70;;
2031;SDS011;27625;50.422;7.944;2024-02-15T04:45:14;7.33;;;3.90;;
2031;SDS011;27625;50.422;7.944;2024-02-15T04:47:42;6.10;;;3.77;;
2031;SDS011;27625;50.422;7.944;2024-02-15T04:50:10;5.37;;;3.77;;
2031;SDS011;27625;50.422;7.944;2024-02-15T04:52:38;5.30;;;3.60;;
2031;SDS011;27625;50.422;7.944;2024-02-15T04:55:11;4.90;;;3.37;;
2031;SDS011;27625;50.422;7.944;2024-02-15T04:57:39;6.67;;;3.80;;
2031;SDS011;27625;50.422;7.944;2024-02-15T05:00:09;6.80;;;3.43;;
2031;SDS011;27625;50.422;7.944;2024-02-15T05:02:38;4.67;;;3.40;;
2031;SDS011;27625;50.422;7.944;2024-02-15T05:05:06;5.57;;;3.93;;
2031;SDS011;27625;50.422;7.944;2024-02-15T05:07:34;6.03;;;3.97;;
2031;SDS011;27625;50.422;7.944;2024-02-15T05:10:03;7.77;;;5.50;;
2031;SDS011;27625;50.422;7.944;2024-02-15T05:12:31;6.20;;;4.50;;
2031;SDS011;27625;50.422;7.944;2024-02-15T05:14:58;7.57;;;4.87;;
2031;SDS011;27625;50.422;7.944;2024-02-15T05:17:26;6.70;;;5.37;;
2031;SDS011;27625;50.422;7.944;2024-02-15T05:19:55;8.33;;;5.50;;
2031;SDS011;27625;50.422;7.944;2024-02-15T05:22:25;6.63;;;4.70;;
2031;SDS011;27625;50.422;7.944;2024-02-15T05:24:54;7.93;;;4.87;;
2031;SDS011;27625;50.422;7.944;2024-02-15T05:27:20;6.57;;;4.90;;
2031;SDS011;27625;50.422;7.944;2024-02-15T05:29:48;7.67;;;5.10;;
2031;SDS011;27625;50.422;7.944;2024-02-15T05:32:24;8.93;;;5.00;;
2031;SDS011;27625;50.422;7.944;2024-02-15T05:34:56;7.57;;;5.17;;
2031;SDS011;27625;50.422;7.944;2024-02-15T05:37:23;8.50;;;5.00;;
2031;SDS011;27625;50.422;7.944;2024-02-15T05:39:51;8.43;;;5.03;;
2031;SDS011;27625;50.422;7.944;2024-02-15T05:42:19;8.00;;;5.30;;
2031;SDS011;27625;50.422;7.944;2024-02-15T05:44:46;8.43;;;5.50;;
2031;SDS011;27625;50.422;7.944;2024-02-15T05:47:12;6.73;;;4.23;;
2031;SDS011;27625;50.422;7.944;2024-02-15T05:49:39;10.70;;;5.30;;
2031;SDS011;27625;50.422;7.944;2024-02-15T05:52:10;6.83;;;5.20;;
2031;SDS011;27625;50.422;7.944;2024-02-15T05:54:37;9.20;;;6.03;;
2031;SDS011;27625;50.422;7.944;2024-02-15T05:57:04;7.37;;;5.53;;
2031;SDS011;27625;50.422;7.944;2024-02-15T05:59:33;8.33;;;5.30;;
2031;SDS011;27625;50.422;7.944;2024-02-15T06:02:00;11.13;;;5.77;;
2031;SDS011;27625;50.422;7.944;2024-02-15T06:06:57;7.70;;;5.60;;
2031;SDS011;27625;50.422;7.944;2024-02-15T06:09:28;7.67;;;5.63;;
2031;SDS011;27625;50.422;7.944;2024-02-15T06:11:58;8.33;;;5.43;;
2031;SDS011;27625;50.422;7.944;2024-02-15T06:14:27;9.13;;;5.27;;
2031;SDS011;27625;50.422;7.944;2024-02-15T06:16:53;10.60;;;5.80;;
2031;SDS011;27625;50.422;7.944;2024-02-15T06:19:24;7.10;;;5.40;;
2031;SDS011;27625;50.422;7.944;2024-02-15T06:21:52;7.47;;;5.47;;
2031;SDS011;27625;50.422;7.944;2024-02-15T06:24:20;8.07;;;5.63;;
2031;SDS011;27625;50.422;7.944;2024-02-15T06:26:51;8.20;;;5.87;;
2031;SDS011;27625;50.422;7.944;2024-02-15T06:29:25;8.30;;;5.27;;
2031;SDS011;27625;50.422;7.944;2024-02-15T06:32:09;8.33;;;5.50;;
2031;SDS011;27625;50.422;7.944;2024-02-15T06:34:54;6.93;;;5.40;;
2031;SDS011;27625;50.422;7.944;2024-02-15T06:37:46;7.97;;;5.40;;
2031;SDS011;27625;50.422;7.944;2024-02-15T06:40:32;11.43;;;5.10;;
2031;SDS011;27625;50.422;7.944;2024-02-15T06:43:00;8.40;;;5.30;;
2031;SDS011;27625;50.422;7.944;2024-02-15T06:45:29;7.60;;;5.47;;
2031;SDS011;27625;50.422;7.944;2024-02-15T06:47:59;8.97;;;5.60;;
2031;SDS011;27625;50.422;7.944;2024-02-15T06:50:26;10.10;;;4.73;;
2031;SDS011;27625;50.422;7.944;2024-02-15T06:52:52;12.57;;;5.90;;
2031;SDS011;27625;50.422;7.944;2024-02-15T06:55:20;10.60;;;5.83;;
2031;SDS011;27625;50.422;7.944;2024-02-15T06:57:48;8.40;;;6.07;;
2031;SDS011;27625;50.422;7.944;2024-02-15T07:00:16;9.50;;;5.87;;
2031;SDS011;27625;50.422;7.944;2024-02-15T07:02:44;8.13;;;4.80;;
2031;SDS011;27625;50.422;7.944;2024-02-15T07:05:13;7.30;;;4.80;;
2031;SDS011;27625;50.422;7.944;2024-02-15T07:07:42;6.90;;;5.30;;
2031;SDS011;27625;50.422;7.944;2024-02-15T07:10:09;7.53;;;5.20;;
2031;SDS011;27625;50.422;7.944;2024-02-15T07:12:36;8.53;;;4.93;;
2031;SDS011;27625;50.422;7.944;2024-02-15T07:15:03;11.37;;;5.47;;
2031;SDS011;27625;50.422;7.944;2024-02-15T07:17:34;9.13;;;5.70;;
2031;SDS011;27625;50.422;7.944;2024-02-15T07:20:02;9.63;;;6.50;;
2031;SDS011;27625;50.422;7.944;2024-02-15T07:22:30;10.53;;;6.57;;
2031;SDS011;27625;50.422;7.944;2024-02-15T07:24:57;12.30;;;6.77;;
2031;SDS011;27625;50.422;7.944;2024-02-15T07:27:30;10.50;;;7.30;;
2031;SDS011;27625;50.422;7.944;2024-02-15T07:30:00;15.50;;;6.80;;
2031;SDS011;27625;50.422;7.944;2024-02-15T07:32:28;12.70;;;8.13;;
2031;SDS011;27625;50.422;7.944;2024-02-15T07:34:58;12.23;;;6.80;;
2031;SDS011;27625;50.422;7.944;2024-02-15T07:37:25;10.07;;;5.73;;
2031;SDS011;27625;50.422;7.944;2024-02-15T07:39:53;9.80;;;6.03;;
2031;SDS011;27625;50.422;7.944;2024-02-15T07:42:21;9.37;;;5.70;;
2031;SDS011;27625;50.422;7.944;2024-02-15T07:44:50;8.50;;;6.00;;
2031;SDS011;27625;50.422;7.944;2024-02-15T07:47:17;12.50;;;6.20;;
2031;SDS011;27625;50.422;7.944;2024-02-15T07:49:46;8.27;;;5.87;;
2031;SDS011;27625;50.422;7.944;2024-02-15T07:52:14;7.90;;;5.80;;
2031;SDS011;27625;50.422;7.944;2024-02-15T07:54:41;8.90;;;5.93;;
2031;SDS011;27625;50.422;7.944;2024-02-15T07:57:09;6.93;;;5.57;;
2031;SDS011;27625;50.422;7.944;2024-02-15T07:59:36;10.10;;;5.50;;
2031;SDS011;27625;50.422;7.944;2024-02-15T08:02:05;9.93;;;6.03;;
2031;SDS011;27625;50.422;7.944;2024-02-15T08:04:39;11.83;;;6.20;;
2031;SDS011;27625;50.422;7.944;2024-02-15T08:07:09;8.13;;;5.83;;
2031;SDS011;27625;50.422;7.944;2024-02-15T08:09:38;12.40;;;7.00;;
2031;SDS011;27625;50.422;7.944;2024-02-15T08:12:05;8.03;;;5.97;;
2031;SDS011;27625;50.422;7.944;2024-02-15T08:14:38;13.57;;;5.63;;
2031;SDS011;27625;50.422;7.944;2024-02-15T08:17:09;8.20;;;6.33;;
2031;SDS011;27625;50.422;7.944;2024-02-15T08:19:39;8.07;;;6.13;;
2031;SDS011;27625;50.422;7.944;2024-02-15T08:22:08;9.00;;;6.47;;
2031;SDS011;27625;50.422;7.944;2024-02-15T08:24:38;7.80;;;5.83;;
2031;SDS011;27625;50.422;7.944;2024-02-15T08:27:05;9.70;;;5.87;;
2031;SDS011;27625;50.422;7.944;2024-02-15T08:32:05;7.73;;;5.53;;
2031;SDS011;27625;50.422;7.944;2024-02-15T08:34:39;11.80;;;5.67;;
2031;SDS011;27625;50.422;7.944;2024-02-15T08:37:06;8.03;;;5.60;;
2031;SDS011;27625;50.422;7.944;2024-02-15T08:39:33;10.10;;;6.27;;
2031;SDS011;27625;50.422;7.944;2024-02-15T08:42:02;11.20;;;5.90;;
2031;SDS011;27625;50.422;7.944;2024-02-15T08:44:30;10.67;;;5.90;;
2031;SDS011;27625;50.422;7.944;2024-02-15T08:47:00;7.80;;;5.07;;
2031;SDS011;27625;50.422;7.944;2024-02-15T08:49:27;8.70;;;5.73;;
2031;SDS011;27625;50.422;7.944;2024-02-15T08:51:58;8.93;;;5.67;;
2031;SDS011;27625;50.422;7.944;2024-02-15T08:54:26;8.00;;;5.63;;
2031;SDS011;27625;50.422;7.944;2024-02-15T08:56:53;11.93;;;5.37;;
2031;SDS011;27625;50.422;7.944;2024-02-15T08:59:22;10.60;;;6.47;;
2031;SDS011;27625;50.422;7.944;2024-02-15T09:01:50;13.20;;;6.40;;
2031;SDS011;27625;50.422;7.944;2024-02-15T09:04:16;11.47;;;6.73;;
2031;SDS011;27625;50.422;7.944;2024-02-15T09:06:43;10.43;;;6.50;;
2031;SDS011;27625;50.422;7.944;2024-02-15T09:09:11;12.67;;;7.17;;
2031;SDS011;27625;50.422;7.944;2024-02-15T09:11:38;12.93;;;8.00;;
2031;SDS011;27625;50.422;7.944;2024-02-15T09:14:04;12.50;;;7.10;;
2031;SDS011;27625;50.422;7.944;2024-02-15T09:16:32;16.80;;;7.53;;
2031;SDS011;27625;50.422;7.944;2024-02-15T09:19:01;13.40;;;6.63;;
2031;SDS011;27625;50.422;7.944;2024-02-15T09:21:28;9.77;;;7.17;;
2031;SDS011;27625;50.422;7.944;2024-02-15T09:23:55;10.80;;;6.83;;
2031;SDS011;27625;50.422;7.944;2024-02-15T09:26:21;11.43;;;7.03;;
2031;SDS011;27625;50.422;7.944;2024-02-15T09:28:48;14.10;;;7.60;;
2031;SDS011;27625;50.422;7.944;2024-02-15T09:31:15;11.23;;;7.43;;
2031;SDS011;27625;50.422;7.944;2024-02-15T09:33:43;12.57;;;6.53;;
2031;SDS011;27625;50.422;7.944;2024-02-15T09:36:10;10.57;;;6.63;;
2031;SDS011;27625;50.422;7.944;2024-02-15T09:38:37;10.93;;;7.73;;
2031;SDS011;27625;50.422;7.944;2024-02-15T09:41:04;10.40;;;7.50;;
2031;SDS011;27625;50.422;7.944;2024-02-15T09:43:32;9.70;;;6.50;;
2031;SDS011;27625;50.422;7.944;2024-02-15T09:46:00;12.50;;;8.10;;
2031;SDS011;27625;50.422;7.944;2024-02-15T09:48:30;11.53;;;6.43;;
2031;SDS011;27625;50.422;7.944;2024-02-15T09:50:59;12.17;;;7.37;;
2031;SDS011;27625;50.422;7.944;2024-02-15T09:53:28;12.57;;;8.60;;
2031;SDS011;27625;50.422;7.944;2024-02-15T09:55:54;17.20;;;7.80;;
2031;SDS011;27625;50.422;7.944;2024-02-15T09:58:29;12.40;;;7.10;;
2031;SDS011;27625;50.422;7.944;2024-02-15T10:00:59;10.20;;;7.90;;
2031;SDS011;27625;50.422;7.944;2024-02-15T10:03:30;12.70;;;8.47;;
2031;SDS011;27625;50.422;7.944;2024-02-15T10:05:57;14.30;;;8.30;;
2031;SDS011;27625;50.422;7.944;2024-02-15T10:08:26;11.30;;;7.70;;
2031;SDS011;27625;50.422;7.944;2024-02-15T10:11:05;12.33;;;7.80;;
2031;SDS011;27625;50.422;7.944;2024-02-15T10:13:33;13.37;;;8.60;;
2031;SDS011;27625;50.422;7.944;2024-02-15T10:16:05;11.03;;;6.73;;
2031;SDS011;27625;50.422;7.944;2024-02-15T10:18:41;9.90;;;6.27;;
2031;SDS011;27625;50.422;7.944;2024-02-15T10:21:08;17.30;;;8.40;;
2031;SDS011;27625;50.422;7.944;2024-02-15T10:23:37;10.60;;;6.70;;
2031;SDS011;27625;50.422;7.944;2024-02-15T10:29:02;8.60;;;6.10;;
2031;SDS011;27625;50.422;7.944;2024-02-15T10:31:33;8.50;;;5.27;;
2031;SDS011;27625;50.422;7.944;2024-02-15T10:34:02;7.77;;;5.50;;
2031;SDS011;27625;50.422;7.944;2024-02-15T10:36:32;7.33;;;4.87;;
2031;SDS011;27625;50.422;7.944;2024-02-15T10:39:14;10.57;;;5.10;;
2031;SDS011;27625;50.422;7.944;2024-02-15T10:41:45;9.10;;;5.83;;
2031;SDS011;27625;50.422;7.944;2024-02-15T10:44:13;10.43;;;5.20;;
2031;SDS011;27625;50.422;7.944;2024-02-15T10:46:42;10.87;;;6.17;;
2031;SDS011;27625;50.422;7.944;2024-02-15T10:49:12;11.00;;;7.10;;
2031;SDS011;27625;50.422;7.944;2024-02-15T10:51:42;15.10;;;6.87;;
2031;SDS011;27625;50.422;7.944;2024-02-15T10:54:15;11.10;;;6.77;;
2031;SDS011;27625;50.422;7.944;2024-02-15T10:56:49;8.13;;;5.40;;
2031;SDS011;27625;50.422;7.944;2024-02-15T10:59:23;9.13;;;5.23;;
2031;SDS011;27625;50.422;7.944;2024-02-15T11:01:53;9.00;;;5.20;;
2031;SDS011;27625;50.422;7.944;2024-02-15T11:04:24;9.63;;;5.43;;
2031;SDS011;27625;50.422;7.944;2024-02-15T11:06:59;11.57;;;6.30;;
2031;SDS011;27625;50.422;7.944;2024-02-15T11:09:30;8.80;;;5.70;;
2031;SDS011;27625;50.422;7.944;2024-02-15T11:11:57;9.20;;;6.17;;
2031;SDS011;27625;50.422;7.944;2024-02-15T11:14:25;8.40;;;5.53;;
2031;SDS011;27625;50.422;7.944;2024-02-15T11:16:54;8.50;;;5.70;;
2031;SDS011;27625;50.422;7.944;2024-02-15T11:19:40;7.33;;;5.80;;
2031;SDS011;27625;50.422;7.944;2024-02-15T11:22:10;13.70;;;5.53;;
2031;SDS011;27625;50.422;7.944;2024-02-15T11:24:46;10.27;;;5.90;;
2031;SDS011;27625;50.422;7.944;2024-02-15T11:27:23;7.83;;;4.83;;
2031;SDS011;27625;50.422;7.944;2024-02-15T11:29:56;6.80;;;4.80;;
2031;SDS011;27625;50.422;7.944;2024-02-15T11:32:38;8.70;;;5.00;;
2031;SDS011;27625;50.422;7.944;2024-02-15T11:35:13;9.50;;;5.43;;
2031;SDS011;27625;50.422;7.944;2024-02-15T11:37:52;7.67;;;4.60;;
2031;SDS011;27625;50.422;7.944;2024-02-15T11:40:23;6.47;;;4.27;;
2031;SDS011;27625;50.422;7.944;2024-02-15T11:42:54;7.80;;;4.80;;
2031;SDS011;27625;50.422;7.944;2024-02-15T11:45:23;7.90;;;4.73;;
2031;SDS011;27625;50.422;7.944;2024-02-15T11:47:51;6.90;;;4.87;;
2031;SDS011;27625;50.422;7.944;2024-02-15T11:50:19;6.60;;;4.37;;
2031;SDS011;27625;50.422;7.944;2024-02-15T11:52:47;7.50;;;4.80;;
2031;SDS011;27625;50.422;7.944;2024-02-15T11:55:17;5.83;;;3.80;;
2031;SDS011;27625;50.422;7.944;2024-02-15T11:57:55;5.70;;;2.83;;
2031;SDS011;27625;50.422;7.944;2024-02-15T12:00:28;6.40;;;4.20;;
2031;SDS011;27625;50.422;7.944;2024-02-15T12:03:16;5.77;;;3.80;;
2031;SDS011;27625;50.422;7.944;2024-02-15T12:06:02;3.10;;;2.30;;
2031;SDS011;27625;50.422;7.944;2024-02-15T12:08:48;3.20;;;1.80;;
2031;SDS011;27625;50.422;7.944;2024-02-15T12:11:35;3.03;;;1.90;;
2031;SDS011;27625;50.422;7.944;2024-02-15T12:14:21;6.13;;;1.87;;
2031;SDS011;27625;50.422;7.944;2024-02-15T12:17:07;4.97;;;1.80;;
2031;SDS011;27625;50.422;7.944;2024-02-15T12:19:52;3.30;;;2.17;;
2031;SDS011;27625;50.422;7.944;2024-02-15T12:22:25;5.20;;;2.33;;
2031;SDS011;27625;50.422;7.944;2024-02-15T12:24:57;7.87;;;4.13;;
2031;SDS011;27625;50.422;7.944;2024-02-15T12:27:25;15.60;;;10.50;;
2031;SDS011;27625;50.422;7.944;2024-02-15T12:29:55;6.07;;;3.23;;
2031;SDS011;27625;50.422;7.944;2024-02-15T12:32:23;4.50;;;2.23;;
2031;SDS011;27625;50.422;7.944;2024-02-15T12:34:50;5.03;;;3.33;;
2031;SDS011;27625;50.422;7.944;2024-02-15T12:37:19;3.20;;;2.13;;
2031;SDS011;27625;50.422;7.944;2024-02-15T12:39:47;5.13;;;2.07;;
2031;SDS011;27625;50.422;7.944;2024-02-15T12:42:16;5.33;;;2.30;;
2031;SDS011;27625;50.422;7.944;2024-02-15T12:44:44;4.53;;;2.83;;
2031;SDS011;27625;50.422;7.944;2024-02-15T12:47:22;3.33;;;2.37;;
2031;SDS011;27625;50.422;7.944;2024-02-15T12:49:50;4.10;;;2.13;;
2031;SDS011;27625;50.422;7.944;2024-02-15T12:52:33;3.27;;;1.70;;
2031;SDS011;27625;50.422;7.944;2024-02-15T12:55:08;3.37;;;1.90;;
2031;SDS011;27625;50.422;7.944;2024-02-15T12:57:38;5.80;;;2.10;;
2031;SDS011;27625;50.422;7.944;2024-02-15T13:00:10;12.40;;;4.80;;
2031;SDS011;27625;50.422;7.944;2024-02-15T13:02:43;14.33;;;6.93;;
2031;SDS011;27625;50.422;7.944;2024-02-15T13:05:12;22.17;;;9.30;;
2031;SDS011;27625;50.422;7.944;2024-02-15T13:07:39;49.87;;;21.70;;
2031;SDS011;27625;50.422;7.944;2024-02-15T13:10:06;53.33;;;26.67;;
2031;SDS011;27625;50.422;7.944;2024-02-15T13:12:35;11.07;;;5.47;;
2031;SDS011;27625;50.422;7.944;2024-02-15T13:17:37;9.73;;;5.33;;
2031;SDS011;27625;50.422;7.944;2024-02-15T13:20:06;3.27;;;2.03;;
2031;SDS011;27625;50.422;7.944;2024-02-15T13:22:39;6.60;;;3.50;;
2031;SDS011;27625;50.422;7.944;2024-02-15T13:25:06;3.13;;;1.67;;
2031;SDS011;27625;50.422;7.944;2024-02-15T13:27:38;4.60;;;2.10;;
2031;SDS011;27625;50.422;7.944;2024-02-15T13:32:36;3.40;;;1.70;;
2031;SDS011;27625;50.422;7.944;2024-02-15T13:35:04;2.40;;;1.50;;
2031;SDS011;27625;50.422;7.944;2024-02-15T13:37:40;5.53;;;1.80;;
2031;SDS011;27625;50.422;7.944;2024-02-15T13:40:09;4.50;;;1.57;;
2031;SDS011;27625;50.422;7.944;2024-02-15T13:42:40;2.93;;;1.70;;
2031;SDS011;27625;50.422;7.944;2024-02-15T13:45:14;6.57;;;2.50;;
2031;SDS011;27625;50.422;7.944;2024-02-15T13:47:44;3.70;;;1.90;;
2031;SDS011;27625;50.422;7.944;2024-02-15T13:50:13;3.70;;;1.83;;
2031;SDS011;27625;50.422;7.944;2024-02-15T13:52:40;4.43;;;1.83;;
2031;SDS011;27625;50.422;7.944;2024-02-15T13:55:11;3.37;;;2.37;;
2031;SDS011;27625;50.422;7.944;2024-02-15T13:57:41;3.57;;;1.70;;
2031;SDS011;27625;50.422;7.944;2024-02-15T14:00:09;5.53;;;2.13;;
2031;SDS011;27625;50.422;7.944;2024-02-15T14:02:46;3.30;;;1.53;;
2031;SDS011;27625;50.422;7.944;2024-02-15T14:05:16;4.43;;;1.73;;
2031;SDS011;27625;50.422;7.944;2024-02-15T14:10:20;3.00;;;1.80;;
2031;SDS011;27625;50.422;7.944;2024-02-15T14:12:48;3.93;;;1.43;;
2031;SDS011;27625;50.422;7.944;2024-02-15T14:15:15;3.10;;;1.53;;
2031;SDS011;27625;50.422;7.944;2024-02-15T14:17:44;3.10;;;1.53;;
2031;SDS011;27625;50.422;7.944;2024-02-15T14:20:11;2.70;;;1.53;;
2031;SDS011;27625;50.422;7.944;2024-02-15T14:22:41;6.03;;;1.30;;
2031;SDS011;27625;50.422;7.944;2024-02-15T14:25:11;4.37;;;1.43;;
2031;SDS011;27625;50.422;7.944;2024-02-15T14:27:39;6.40;;;1.43;;
2031;SDS011;27625;50.422;7.944;2024-02-15T14:30:08;2.40;;;1.37;;
2031;SDS011;27625;50.422;7.944;2024-02-15T14:32:52;2.77;;;1.60;;
2031;SDS011;27625;50.422;7.944;2024-02-15T14:35:30;3.73;;;1.90;;
2031;SDS011;27625;50.422;7.944;2024-02-15T14:38:04;6.03;;;1.90;;
2031;SDS011;27625;50.422;7.944;2024-02-15T14:40:33;2.40;;;1.20;;
2031;SDS011;27625;50.422;7.944;2024-02-15T14:43:00;2.73;;;1.40;;
2031;SDS011;27625;50.422;7.944;2024-02-15T14:45:27;3.40;;;1.53;;
2031;SDS011;27625;50.422;7.944;2024-02-15T14:47:54;4.03;;;1.60;;
2031;SDS011;27625;50.422;7.944;2024-02-15T14:50:24;4.07;;;1.53;;
2031;SDS011;27625;50.422;7.944;2024-02-15T14:52:52;2.93;;;1.47;;
2031;SDS011;27625;50.422;7.944;2024-02-15T14:55:20;4.33;;;1.90;;
2031;SDS011;27625;50.422;7.944;2024-02-15T14:57:54;3.67;;;2.10;;
2031;SDS011;27625;50.422;7.944;2024-02-15T15:00:22;3.03;;;1.57;;
2031;SDS011;27625;50.422;7.944;2024-02-15T15:02:50;5.30;;;2.10;;
2031;SDS011;27625;50.422;7.944;2024-02-15T15:05:17;4.43;;;2.00;;
2031;SDS011;27625;50.422;7.944;2024-02-15T15:08:01;4.63;;;3.50;;
2031;SDS011;27625;50.422;7.944;2024-02-15T15:10:49;4.20;;;2.30;;
2031;SDS011;27625;50.422;7.944;2024-02-15T15:13:34;2.93;;;1.60;;
2031;SDS011;27625;50.422;7.944;2024-02-15T15:16:02;2.93;;;1.60;;
2031;SDS011;27625;50.422;7.944;2024-02-15T15:18:29;6.00;;;2.00;;
2031;SDS011;27625;50.422;7.944;2024-02-15T15:20:57;3.73;;;1.80;;
2031;SDS011;27625;50.422;7.944;2024-02-15T15:23:25;4.73;;;1.90;;
2031;SDS011;27625;50.422;7.944;2024-02-15T15:25:57;3.80;;;1.80;;
2031;SDS011;27625;50.422;7.944;2024-02-15T15:28:26;6.43;;;1.97;;
2031;SDS011;27625;50.422;7.944;2024-02-15T15:30:54;3.93;;;1.70;;
2031;SDS011;27625;50.422;7.944;2024-02-15T15:33:22;4.80;;;2.03;;
2031;SDS011;27625;50.422;7.944;2024-02-15T15:35:53;4.90;;;1.60;;